sensor_id;sensor_type;location;lat;lon;timestamp;P1;durP1;ratioP1;P2;durP2;ratioP2
45620;SDS011;31345;51.522;10.702;2023-02-21T00:00:08;21.13;;;12.25;;
45620;SDS011;31345;51.522;10.702;2023-02-21T00:02:55;21.17;;;11.68;;
45620;SDS011;31345;51.522;10.702;2023-02-21T00:05:45;18.38;;;10.93;;
45620;SDS011;31345;51.522;10.702;2023-02-21T00:08:35;15.77;;;10.20;;
45620;SDS011;31345;51.522;10.702;2023-02-21T00:11:20;20.33;;;11.07;;
45620;SDS011;31345;51.522;10.702;2023-02-21T00:14:10;20.38;;;11.10;;
45620;SDS011;31345;51.522;10.702;2023-02-21T00:17:00;18.98;;;10.93;;
45620;SDS011;31345;51.522;10.702;2023-02-21T00:19:51;17.55;;;10.80;;
45620;SDS011;31345;51.522;10.702;2023-02-21T00:22:41;19.10;;;11.13;;
45620;SDS011;31345;51.522;10.702;2023-02-21T00:25:26;17.75;;;10.40;;
45620;SDS011;31345;51.522;10.702;2023-02-21T00:28:10;19.45;;;11.13;;
45620;SDS011;31345;51.522;10.702;2023-02-21T00:31:00;18.67;;;10.60;;
45620;SDS011;31345;51.522;10.702;2023-02-21T00:33:45;16.60;;;10.65;;
45620;SDS011;31345;51.522;10.702;2023-02-21T00:36:37;16.77;;;10.05;;
45620;SDS011;31345;51.522;10.702;2023-02-21T00:39:22;16.13;;;9.80;;
45620;SDS011;31345;51.522;10.702;2023-02-21T00:42:07;14.77;;;9.25;;
45620;SDS011;31345;51.522;10.702;2023-02-21T00:44:57;20.20;;;11.00;;
45620;SDS011;31345;51.522;10.702;2023-02-21T00:47:47;17.27;;;10.15;;
45620;SDS011;31345;51.522;10.702;2023-02-21T00:50:36;15.35;;;9.65;;
45620;SDS011;31345;51.522;10.702;2023-02-21T00:53:24;15.45;;;9.43;;
45620;SDS011;31345;51.522;10.702;2023-02-21T00:56:14;16.73;;;10.02;;
45620;SDS011;31345;51.522;10.702;2023-02-21T00:59:04;15.18;;;9.20;;
45620;SDS011;31345;51.522;10.702;2023-02-21T01:01:49;13.90;;;9.35;;
45620;SDS011;31345;51.522;10.702;2023-02-21T01:04:34;17.00;;;9.75;;
45620;SDS011;31345;51.522;10.702;2023-02-21T01:07:19;15.30;;;8.88;;
45620;SDS011;31345;51.522;10.702;2023-02-21T01:10:12;15.02;;;9.10;;
45620;SDS011;31345;51.522;10.702;2023-02-21T01:13:02;15.98;;;8.88;;
45620;SDS011;31345;51.522;10.702;2023-02-21T01:15:55;14.23;;;9.50;;
45620;SDS011;31345;51.522;10.702;2023-02-21T01:18:45;12.88;;;8.13;;
45620;SDS011;31345;51.522;10.702;2023-02-21T01:21:30;13.93;;;9.25;;
45620;SDS011;31345;51.522;10.702;2023-02-21T01:24:20;15.40;;;9.63;;
45620;SDS011;31345;51.522;10.702;2023-02-21T01:27:12;18.00;;;11.10;;
45620;SDS011;31345;51.522;10.702;2023-02-21T01:32:52;16.67;;;9.90;;
45620;SDS011;31345;51.522;10.702;2023-02-21T01:35:37;15.77;;;9.73;;
45620;SDS011;31345;51.522;10.702;2023-02-21T01:38:27;17.00;;;10.48;;
45620;SDS011;31345;51.522;10.702;2023-02-21T01:41:12;15.93;;;10.07;;
45620;SDS011;31345;51.522;10.702;2023-02-21T01:43:59;17.42;;;11.18;;
45620;SDS011;31345;51.522;10.702;2023-02-21T01:46:51;19.38;;;11.52;;
45620;SDS011;31345;51.522;10.702;2023-02-21T01:49:41;17.98;;;11.40;;
45620;SDS011;31345;51.522;10.702;2023-02-21T01:52:31;19.42;;;11.90;;
45620;SDS011;31345;51.522;10.702;2023-02-21T01:55:18;23.23;;;12.55;;
45620;SDS011;31345;51.522;10.702;2023-02-21T01:58:09;20.88;;;12.30;;
45620;SDS011;31345;51.522;10.702;2023-02-21T02:01:01;18.90;;;11.98;;
45620;SDS011;31345;51.522;10.702;2023-02-21T02:03:46;19.50;;;11.88;;
45620;SDS011;31345;51.522;10.702;2023-02-21T02:06:36;20.27;;;11.85;;
45620;SDS011;31345;51.522;10.702;2023-02-21T02:09:26;19.48;;;12.52;;
45620;SDS011;31345;51.522;10.702;2023-02-21T02:12:22;23.70;;;12.73;;
45620;SDS011;31345;51.522;10.702;2023-02-21T02:15:11;20.92;;;11.90;;
45620;SDS011;31345;51.522;10.702;2023-02-21T02:17:56;21.13;;;12.55;;
45620;SDS011;31345;51.522;10.702;2023-02-21T02:21:12;20.77;;;13.30;;
45620;SDS011;31345;51.522;10.702;2023-02-21T02:24:31;24.35;;;13.45;;
45620;SDS011;31345;51.522;10.702;2023-02-21T02:30:36;20.27;;;11.85;;
45620;SDS011;31345;51.522;10.702;2023-02-21T02:36:33;19.50;;;12.73;;
45620;SDS011;31345;51.522;10.702;2023-02-21T02:39:14;18.73;;;12.33;;
45620;SDS011;31345;51.522;10.702;2023-02-21T02:41:57;19.48;;;12.00;;
45620;SDS011;31345;51.522;10.702;2023-02-21T02:47:13;18.45;;;11.40;;
45620;SDS011;31345;51.522;10.702;2023-02-21T02:49:50;22.45;;;12.13;;
45620;SDS011;31345;51.522;10.702;2023-02-21T02:52:21;21.15;;;12.20;;
45620;SDS011;31345;51.522;10.702;2023-02-21T02:54:56;19.10;;;12.57;;
45620;SDS011;31345;51.522;10.702;2023-02-21T02:57:31;19.65;;;12.98;;
45620;SDS011;31345;51.522;10.702;2023-02-21T03:00:06;21.38;;;13.38;;
45620;SDS011;31345;51.522;10.702;2023-02-21T03:02:38;22.42;;;13.70;;
45620;SDS011;31345;51.522;10.702;2023-02-21T03:05:27;21.10;;;12.82;;
45620;SDS011;31345;51.522;10.702;2023-02-21T03:08:24;20.85;;;13.38;;
45620;SDS011;31345;51.522;10.702;2023-02-21T03:11:06;21.85;;;14.13;;
45620;SDS011;31345;51.522;10.702;2023-02-21T03:13:42;22.60;;;13.73;;
45620;SDS011;31345;51.522;10.702;2023-02-21T03:16:22;25.58;;;15.30;;
45620;SDS011;31345;51.522;10.702;2023-02-21T03:18:59;23.85;;;14.82;;
45620;SDS011;31345;51.522;10.702;2023-02-21T03:21:36;21.48;;;13.30;;
45620;SDS011;31345;51.522;10.702;2023-02-21T03:24:10;21.70;;;13.88;;
45620;SDS011;31345;51.522;10.702;2023-02-21T03:26:46;21.17;;;14.05;;
45620;SDS011;31345;51.522;10.702;2023-02-21T03:29:36;23.42;;;14.23;;
45620;SDS011;31345;51.522;10.702;2023-02-21T03:32:11;24.00;;;15.23;;
45620;SDS011;31345;51.522;10.702;2023-02-21T03:34:45;29.23;;;17.52;;
45620;SDS011;31345;51.522;10.702;2023-02-21T03:37:21;30.52;;;17.38;;
45620;SDS011;31345;51.522;10.702;2023-02-21T03:40:04;27.50;;;17.20;;
45620;SDS011;31345;51.522;10.702;2023-02-21T03:42:39;29.02;;;17.92;;
45620;SDS011;31345;51.522;10.702;2023-02-21T03:45:07;29.33;;;17.45;;
45620;SDS011;31345;51.522;10.702;2023-02-21T03:47:36;30.85;;;17.83;;
45620;SDS011;31345;51.522;10.702;2023-02-21T03:50:09;29.77;;;18.95;;
45620;SDS011;31345;51.522;10.702;2023-02-21T03:52:44;31.38;;;17.52;;
45620;SDS011;31345;51.522;10.702;2023-02-21T03:55:19;33.13;;;19.30;;
45620;SDS011;31345;51.522;10.702;2023-02-21T03:57:54;31.13;;;18.80;;
45620;SDS011;31345;51.522;10.702;2023-02-21T04:00:23;35.55;;;19.88;;
45620;SDS011;31345;51.522;10.702;2023-02-21T04:02:58;31.33;;;17.63;;
45620;SDS011;31345;51.522;10.702;2023-02-21T04:05:40;31.98;;;19.55;;
45620;SDS011;31345;51.522;10.702;2023-02-21T04:08:14;36.13;;;19.45;;
45620;SDS011;31345;51.522;10.702;2023-02-21T04:10:51;30.30;;;18.38;;
45620;SDS011;31345;51.522;10.702;2023-02-21T04:13:21;32.72;;;18.50;;
45620;SDS011;31345;51.522;10.702;2023-02-21T04:15:55;37.80;;;19.88;;
45620;SDS011;31345;51.522;10.702;2023-02-21T04:18:34;32.70;;;19.20;;
45620;SDS011;31345;51.522;10.702;2023-02-21T04:21:10;30.70;;;18.58;;
45620;SDS011;31345;51.522;10.702;2023-02-21T04:23:48;34.90;;;19.85;;
45620;SDS011;31345;51.522;10.702;2023-02-21T04:26:22;38.35;;;21.20;;
45620;SDS011;31345;51.522;10.702;2023-02-21T04:28:53;38.80;;;21.60;;
45620;SDS011;31345;51.522;10.702;2023-02-21T04:34:15;35.15;;;20.45;;
45620;SDS011;31345;51.522;10.702;2023-02-21T04:36:47;36.88;;;21.05;;
45620;SDS011;31345;51.522;10.702;2023-02-21T04:39:18;37.80;;;21.10;;
45620;SDS011;31345;51.522;10.702;2023-02-21T04:41:50;33.60;;;19.40;;
45620;SDS011;31345;51.522;10.702;2023-02-21T04:44:20;33.20;;;19.57;;
45620;SDS011;31345;51.522;10.702;2023-02-21T04:47:16;35.13;;;20.42;;
45620;SDS011;31345;51.522;10.702;2023-02-21T04:49:55;35.90;;;20.00;;
45620;SDS011;31345;51.522;10.702;2023-02-21T04:52:23;38.40;;;19.80;;
45620;SDS011;31345;51.522;10.702;2023-02-21T04:54:59;36.30;;;21.30;;
45620;SDS011;31345;51.522;10.702;2023-02-21T04:57:30;37.33;;;21.08;;
45620;SDS011;31345;51.522;10.702;2023-02-21T04:59:58;35.38;;;21.02;;
45620;SDS011;31345;51.522;10.702;2023-02-21T05:02:33;36.20;;;20.08;;
45620;SDS011;31345;51.522;10.702;2023-02-21T05:05:04;36.72;;;20.33;;
45620;SDS011;31345;51.522;10.702;2023-02-21T05:07:45;33.33;;;20.45;;
45620;SDS011;31345;51.522;10.702;2023-02-21T05:10:13;32.67;;;18.73;;
45620;SDS011;31345;51.522;10.702;2023-02-21T05:12:43;33.65;;;18.58;;
45620;SDS011;31345;51.522;10.702;2023-02-21T05:15:16;32.88;;;19.05;;
45620;SDS011;31345;51.522;10.702;2023-02-21T05:17:47;31.42;;;16.77;;
45620;SDS011;31345;51.522;10.702;2023-02-21T05:20:15;26.00;;;16.58;;
45620;SDS011;31345;51.522;10.702;2023-02-21T05:22:48;32.17;;;17.80;;
45620;SDS011;31345;51.522;10.702;2023-02-21T05:25:32;33.53;;;17.58;;
45620;SDS011;31345;51.522;10.702;2023-02-21T05:28:11;29.00;;;17.27;;
45620;SDS011;31345;51.522;10.702;2023-02-21T05:30:56;31.08;;;17.45;;
45620;SDS011;31345;51.522;10.702;2023-02-21T05:33:44;33.15;;;17.23;;
45620;SDS011;31345;51.522;10.702;2023-02-21T05:36:16;30.48;;;18.95;;
45620;SDS011;31345;51.522;10.702;2023-02-21T05:38:50;28.05;;;16.98;;
45620;SDS011;31345;51.522;10.702;2023-02-21T05:41:25;30.25;;;18.45;;
45620;SDS011;31345;51.522;10.702;2023-02-21T05:43:55;27.58;;;17.40;;
45620;SDS011;31345;51.522;10.702;2023-02-21T05:46:32;28.75;;;17.35;;
45620;SDS011;31345;51.522;10.702;2023-02-21T05:49:01;31.20;;;18.58;;
45620;SDS011;31345;51.522;10.702;2023-02-21T05:51:45;28.25;;;16.75;;
45620;SDS011;31345;51.522;10.702;2023-02-21T05:54:18;28.77;;;18.05;;
45620;SDS011;31345;51.522;10.702;2023-02-21T05:56:48;29.52;;;17.13;;
45620;SDS011;31345;51.522;10.702;2023-02-21T05:59:22;32.60;;;19.52;;
45620;SDS011;31345;51.522;10.702;2023-02-21T06:01:58;30.67;;;18.45;;
45620;SDS011;31345;51.522;10.702;2023-02-21T06:04:34;32.22;;;17.70;;
45620;SDS011;31345;51.522;10.702;2023-02-21T06:07:02;29.33;;;17.63;;
45620;SDS011;31345;51.522;10.702;2023-02-21T06:09:30;35.50;;;19.83;;
45620;SDS011;31345;51.522;10.702;2023-02-21T06:12:03;31.27;;;18.83;;
45620;SDS011;31345;51.522;10.702;2023-02-21T06:14:33;33.47;;;19.65;;
45620;SDS011;31345;51.522;10.702;2023-02-21T06:17:01;33.90;;;19.42;;
45620;SDS011;31345;51.522;10.702;2023-02-21T06:19:32;37.10;;;20.65;;
45620;SDS011;31345;51.522;10.702;2023-02-21T06:22:03;31.98;;;19.00;;
45620;SDS011;31345;51.522;10.702;2023-02-21T06:24:38;34.05;;;20.55;;
45620;SDS011;31345;51.522;10.702;2023-02-21T06:27:17;32.88;;;19.98;;
45620;SDS011;31345;51.522;10.702;2023-02-21T06:29:47;35.72;;;21.42;;
45620;SDS011;31345;51.522;10.702;2023-02-21T06:32:20;31.60;;;18.58;;
45620;SDS011;31345;51.522;10.702;2023-02-21T06:34:53;32.28;;;18.83;;
45620;SDS011;31345;51.522;10.702;2023-02-21T06:37:21;31.05;;;18.77;;
45620;SDS011;31345;51.522;10.702;2023-02-21T06:42:41;32.00;;;20.52;;
45620;SDS011;31345;51.522;10.702;2023-02-21T06:45:11;35.15;;;20.73;;
45620;SDS011;31345;51.522;10.702;2023-02-21T06:47:42;35.15;;;19.80;;
45620;SDS011;31345;51.522;10.702;2023-02-21T06:50:12;32.42;;;19.35;;
45620;SDS011;31345;51.522;10.702;2023-02-21T06:52:41;36.67;;;20.60;;
45620;SDS011;31345;51.522;10.702;2023-02-21T06:55:18;37.90;;;21.15;;
45620;SDS011;31345;51.522;10.702;2023-02-21T06:57:46;35.83;;;20.73;;
45620;SDS011;31345;51.522;10.702;2023-02-21T07:03:14;37.33;;;21.05;;
45620;SDS011;31345;51.522;10.702;2023-02-21T07:05:42;36.88;;;21.48;;
45620;SDS011;31345;51.522;10.702;2023-02-21T07:08:14;37.45;;;21.75;;
45620;SDS011;31345;51.522;10.702;2023-02-21T07:10:51;37.40;;;21.02;;
45620;SDS011;31345;51.522;10.702;2023-02-21T07:13:26;36.03;;;21.48;;
45620;SDS011;31345;51.522;10.702;2023-02-21T07:15:55;39.60;;;22.35;;
45620;SDS011;31345;51.522;10.702;2023-02-21T07:18:23;40.83;;;21.65;;
45620;SDS011;31345;51.522;10.702;2023-02-21T07:21:02;39.10;;;20.80;;
45620;SDS011;31345;51.522;10.702;2023-02-21T07:23:30;38.45;;;21.00;;
45620;SDS011;31345;51.522;10.702;2023-02-21T07:25:58;34.78;;;20.92;;
45620;SDS011;31345;51.522;10.702;2023-02-21T07:28:26;36.80;;;21.83;;
45620;SDS011;31345;51.522;10.702;2023-02-21T07:30:55;34.28;;;19.80;;
45620;SDS011;31345;51.522;10.702;2023-02-21T07:33:24;35.53;;;19.85;;
45620;SDS011;31345;51.522;10.702;2023-02-21T07:35:57;40.65;;;22.40;;
45620;SDS011;31345;51.522;10.702;2023-02-21T07:38:29;37.35;;;20.20;;
45620;SDS011;31345;51.522;10.702;2023-02-21T07:41:07;36.00;;;20.60;;
45620;SDS011;31345;51.522;10.702;2023-02-21T07:43:37;38.83;;;21.05;;
45620;SDS011;31345;51.522;10.702;2023-02-21T07:46:17;37.28;;;19.98;;
45620;SDS011;31345;51.522;10.702;2023-02-21T07:48:46;41.83;;;22.13;;
45620;SDS011;31345;51.522;10.702;2023-02-21T07:51:17;39.47;;;22.17;;
45620;SDS011;31345;51.522;10.702;2023-02-21T07:53:57;42.67;;;21.77;;
45620;SDS011;31345;51.522;10.702;2023-02-21T07:56:28;44.15;;;22.75;;
45620;SDS011;31345;51.522;10.702;2023-02-21T07:58:58;41.50;;;22.65;;
45620;SDS011;31345;51.522;10.702;2023-02-21T08:01:54;38.40;;;23.05;;
45620;SDS011;31345;51.522;10.702;2023-02-21T08:04:33;39.50;;;21.73;;
45620;SDS011;31345;51.522;10.702;2023-02-21T08:07:09;38.90;;;21.30;;
45620;SDS011;31345;51.522;10.702;2023-02-21T08:09:42;39.33;;;21.95;;
45620;SDS011;31345;51.522;10.702;2023-02-21T08:12:13;37.20;;;22.27;;
45620;SDS011;31345;51.522;10.702;2023-02-21T08:14:42;38.72;;;22.45;;
45620;SDS011;31345;51.522;10.702;2023-02-21T08:17:16;37.35;;;21.17;;
45620;SDS011;31345;51.522;10.702;2023-02-21T08:19:46;35.17;;;20.67;;
45620;SDS011;31345;51.522;10.702;2023-02-21T08:22:14;37.72;;;21.42;;
45620;SDS011;31345;51.522;10.702;2023-02-21T08:24:49;37.63;;;20.88;;
45620;SDS011;31345;51.522;10.702;2023-02-21T08:27:26;38.10;;;20.15;;
45620;SDS011;31345;51.522;10.702;2023-02-21T08:29:59;34.33;;;19.58;;
45620;SDS011;31345;51.522;10.702;2023-02-21T08:35:21;36.33;;;20.00;;
45620;SDS011;31345;51.522;10.702;2023-02-21T08:37:50;37.20;;;20.13;;
45620;SDS011;31345;51.522;10.702;2023-02-21T08:40:22;35.30;;;20.52;;
45620;SDS011;31345;51.522;10.702;2023-02-21T08:43:00;33.67;;;18.55;;
45620;SDS011;31345;51.522;10.702;2023-02-21T08:45:31;35.90;;;19.08;;
45620;SDS011;31345;51.522;10.702;2023-02-21T08:48:01;35.38;;;18.83;;
45620;SDS011;31345;51.522;10.702;2023-02-21T08:50:33;35.88;;;19.40;;
45620;SDS011;31345;51.522;10.702;2023-02-21T08:53:07;33.22;;;18.25;;
45620;SDS011;31345;51.522;10.702;2023-02-21T08:55:39;36.33;;;18.67;;
45620;SDS011;31345;51.522;10.702;2023-02-21T08:58:14;33.75;;;17.77;;
45620;SDS011;31345;51.522;10.702;2023-02-21T09:01:00;32.67;;;18.08;;
45620;SDS011;31345;51.522;10.702;2023-02-21T09:03:32;33.80;;;16.98;;
45620;SDS011;31345;51.522;10.702;2023-02-21T09:06:03;33.88;;;18.98;;
45620;SDS011;31345;51.522;10.702;2023-02-21T09:08:31;34.67;;;18.27;;
45620;SDS011;31345;51.522;10.702;2023-02-21T09:11:00;36.05;;;19.48;;
45620;SDS011;31345;51.522;10.702;2023-02-21T09:13:34;39.67;;;21.65;;
45620;SDS011;31345;51.522;10.702;2023-02-21T09:16:08;28.83;;;16.25;;
45620;SDS011;31345;51.522;10.702;2023-02-21T09:18:39;73.70;;;46.17;;
45620;SDS011;31345;51.522;10.702;2023-02-21T09:21:15;31.80;;;18.73;;
45620;SDS011;31345;51.522;10.702;2023-02-21T09:23:47;61.47;;;35.67;;
45620;SDS011;31345;51.522;10.702;2023-02-21T09:26:19;47.88;;;29.30;;
45620;SDS011;31345;51.522;10.702;2023-02-21T09:28:50;40.60;;;23.40;;
45620;SDS011;31345;51.522;10.702;2023-02-21T09:32:43;42.88;;;24.45;;
45620;SDS011;31345;51.522;10.702;2023-02-21T09:35:28;85.78;;;48.00;;
45620;SDS011;31345;51.522;10.702;2023-02-21T09:38:15;57.35;;;33.78;;
45620;SDS011;31345;51.522;10.702;2023-02-21T09:41:22;58.90;;;32.47;;
45620;SDS011;31345;51.522;10.702;2023-02-21T09:43:58;49.22;;;30.10;;
45620;SDS011;31345;51.522;10.702;2023-02-21T09:46:28;41.88;;;23.83;;
45620;SDS011;31345;51.522;10.702;2023-02-21T09:49:01;59.33;;;36.75;;
45620;SDS011;31345;51.522;10.702;2023-02-21T09:51:41;42.28;;;25.92;;
45620;SDS011;31345;51.522;10.702;2023-02-21T09:54:12;60.65;;;38.45;;
45620;SDS011;31345;51.522;10.702;2023-02-21T09:56:54;38.90;;;21.60;;
45620;SDS011;31345;51.522;10.702;2023-02-21T09:59:28;33.20;;;18.05;;
45620;SDS011;31345;51.522;10.702;2023-02-21T10:02:02;30.88;;;17.15;;
45620;SDS011;31345;51.522;10.702;2023-02-21T10:04:59;33.65;;;19.40;;
45620;SDS011;31345;51.522;10.702;2023-02-21T10:07:42;24.88;;;16.40;;
45620;SDS011;31345;51.522;10.702;2023-02-21T10:10:26;30.80;;;17.23;;
45620;SDS011;31345;51.522;10.702;2023-02-21T10:13:09;24.20;;;15.50;;
45620;SDS011;31345;51.522;10.702;2023-02-21T10:16:05;26.08;;;14.68;;
45620;SDS011;31345;51.522;10.702;2023-02-21T10:18:47;30.33;;;14.95;;
45620;SDS011;31345;51.522;10.702;2023-02-21T10:24:16;25.52;;;15.25;;
45620;SDS011;31345;51.522;10.702;2023-02-21T10:26:53;23.88;;;14.00;;
45620;SDS011;31345;51.522;10.702;2023-02-21T10:29:32;26.40;;;13.82;;
45620;SDS011;31345;51.522;10.702;2023-02-21T10:32:06;25.60;;;15.20;;
45620;SDS011;31345;51.522;10.702;2023-02-21T10:34:38;23.35;;;13.32;;
45620;SDS011;31345;51.522;10.702;2023-02-21T10:37:15;19.65;;;12.73;;
45620;SDS011;31345;51.522;10.702;2023-02-21T10:39:54;19.90;;;12.27;;
45620;SDS011;31345;51.522;10.702;2023-02-21T10:42:35;21.00;;;12.77;;
45620;SDS011;31345;51.522;10.702;2023-02-21T10:45:08;21.58;;;13.13;;
45620;SDS011;31345;51.522;10.702;2023-02-21T10:47:55;20.70;;;12.30;;
45620;SDS011;31345;51.522;10.702;2023-02-21T10:50:39;22.92;;;12.68;;
45620;SDS011;31345;51.522;10.702;2023-02-21T10:53:34;18.13;;;11.75;;
45620;SDS011;31345;51.522;10.702;2023-02-21T10:56:25;17.90;;;11.73;;
45620;SDS011;31345;51.522;10.702;2023-02-21T10:58:59;20.10;;;12.00;;
45620;SDS011;31345;51.522;10.702;2023-02-21T11:04:21;21.40;;;12.15;;
45620;SDS011;31345;51.522;10.702;2023-02-21T11:07:01;20.35;;;13.15;;
45620;SDS011;31345;51.522;10.702;2023-02-21T11:09:33;19.80;;;11.85;;
45620;SDS011;31345;51.522;10.702;2023-02-21T11:12:21;18.90;;;12.02;;
45620;SDS011;31345;51.522;10.702;2023-02-21T11:15:02;19.05;;;11.32;;
45620;SDS011;31345;51.522;10.702;2023-02-21T11:17:42;19.80;;;10.85;;
45620;SDS011;31345;51.522;10.702;2023-02-21T11:20:15;20.13;;;12.23;;
45620;SDS011;31345;51.522;10.702;2023-02-21T11:22:48;19.25;;;11.65;;
45620;SDS011;31345;51.522;10.702;2023-02-21T11:25:21;19.95;;;12.05;;
45620;SDS011;31345;51.522;10.702;2023-02-21T11:28:03;19.95;;;11.10;;
45620;SDS011;31345;51.522;10.702;2023-02-21T11:30:33;17.25;;;10.50;;
45620;SDS011;31345;51.522;10.702;2023-02-21T11:33:05;19.08;;;11.52;;
45620;SDS011;31345;51.522;10.702;2023-02-21T11:35:36;18.65;;;11.00;;
45620;SDS011;31345;51.522;10.702;2023-02-21T11:38:29;18.65;;;11.05;;
45620;SDS011;31345;51.522;10.702;2023-02-21T11:40:57;21.80;;;13.95;;
45620;SDS011;31345;51.522;10.702;2023-02-21T11:43:31;44.65;;;27.40;;
45620;SDS011;31345;51.522;10.702;2023-02-21T11:46:03;57.00;;;34.38;;
45620;SDS011;31345;51.522;10.702;2023-02-21T11:48:41;49.45;;;28.42;;
45620;SDS011;31345;51.522;10.702;2023-02-21T11:51:17;41.35;;;24.95;;
45620;SDS011;31345;51.522;10.702;2023-02-21T11:53:53;47.80;;;29.13;;
45620;SDS011;31345;51.522;10.702;2023-02-21T11:56:27;47.55;;;28.10;;
45620;SDS011;31345;51.522;10.702;2023-02-21T11:59:09;29.88;;;19.35;;
45620;SDS011;31345;51.522;10.702;2023-02-21T12:02:03;25.10;;;17.30;;
45620;SDS011;31345;51.522;10.702;2023-02-21T12:04:55;19.75;;;11.00;;
45620;SDS011;31345;51.522;10.702;2023-02-21T12:07:36;17.10;;;10.88;;
45620;SDS011;31345;51.522;10.702;2023-02-21T12:10:26;19.08;;;11.20;;
45620;SDS011;31345;51.522;10.702;2023-02-21T12:13:09;16.23;;;11.18;;
45620;SDS011;31345;51.522;10.702;2023-02-21T12:15:53;22.38;;;12.43;;
45620;SDS011;31345;51.522;10.702;2023-02-21T12:18:36;18.48;;;12.10;;
45620;SDS011;31345;51.522;10.702;2023-02-21T12:21:27;16.98;;;9.93;;
45620;SDS011;31345;51.522;10.702;2023-02-21T12:24:17;18.92;;;11.00;;
45620;SDS011;31345;51.522;10.702;2023-02-21T12:26:55;17.88;;;11.25;;
45620;SDS011;31345;51.522;10.702;2023-02-21T12:29:32;19.30;;;10.10;;
45620;SDS011;31345;51.522;10.702;2023-02-21T12:32:22;16.33;;;10.82;;
45620;SDS011;31345;51.522;10.702;2023-02-21T12:35:17;14.65;;;9.75;;
45620;SDS011;31345;51.522;10.702;2023-02-21T12:38:03;15.30;;;9.90;;
45620;SDS011;31345;51.522;10.702;2023-02-21T12:40:36;14.63;;;9.40;;
45620;SDS011;31345;51.522;10.702;2023-02-21T12:43:18;16.45;;;11.13;;
45620;SDS011;31345;51.522;10.702;2023-02-21T12:46:00;14.73;;;9.43;;
45620;SDS011;31345;51.522;10.702;2023-02-21T12:48:40;21.35;;;11.20;;
45620;SDS011;31345;51.522;10.702;2023-02-21T12:54:22;13.55;;;9.30;;
45620;SDS011;31345;51.522;10.702;2023-02-21T12:57:03;12.57;;;8.55;;
45620;SDS011;31345;51.522;10.702;2023-02-21T12:59:37;16.00;;;9.10;;
45620;SDS011;31345;51.522;10.702;2023-02-21T13:02:20;11.85;;;8.18;;
45620;SDS011;31345;51.522;10.702;2023-02-21T13:04:57;11.38;;;8.32;;
45620;SDS011;31345;51.522;10.702;2023-02-21T13:07:31;12.77;;;8.30;;
45620;SDS011;31345;51.522;10.702;2023-02-21T13:10:07;11.60;;;7.25;;
45620;SDS011;31345;51.522;10.702;2023-02-21T13:12:42;10.57;;;7.05;;
45620;SDS011;31345;51.522;10.702;2023-02-21T13:15:22;12.20;;;7.80;;
45620;SDS011;31345;51.522;10.702;2023-02-21T13:17:57;10.93;;;7.45;;
45620;SDS011;31345;51.522;10.702;2023-02-21T13:20:30;11.48;;;7.40;;
45620;SDS011;31345;51.522;10.702;2023-02-21T13:23:12;12.30;;;8.32;;
45620;SDS011;31345;51.522;10.702;2023-02-21T13:26:09;12.25;;;8.23;;
45620;SDS011;31345;51.522;10.702;2023-02-21T13:28:50;11.55;;;8.05;;
45620;SDS011;31345;51.522;10.702;2023-02-21T13:31:20;12.57;;;8.00;;
45620;SDS011;31345;51.522;10.702;2023-02-21T13:33:50;11.95;;;8.23;;
45620;SDS011;31345;51.522;10.702;2023-02-21T13:36:24;10.70;;;6.55;;
45620;SDS011;31345;51.522;10.702;2023-02-21T13:39:02;11.93;;;7.63;;
45620;SDS011;31345;51.522;10.702;2023-02-21T13:41:41;10.73;;;7.43;;
45620;SDS011;31345;51.522;10.702;2023-02-21T13:44:16;9.10;;;6.38;;
45620;SDS011;31345;51.522;10.702;2023-02-21T13:49:48;9.98;;;6.45;;
45620;SDS011;31345;51.522;10.702;2023-02-21T13:55:27;9.23;;;6.50;;
45620;SDS011;31345;51.522;10.702;2023-02-21T14:01:12;10.18;;;6.15;;
45620;SDS011;31345;51.522;10.702;2023-02-21T14:03:55;11.57;;;7.03;;
45620;SDS011;31345;51.522;10.702;2023-02-21T14:06:27;24.85;;;16.33;;
45620;SDS011;31345;51.522;10.702;2023-02-21T14:09:01;11.82;;;7.55;;
45620;SDS011;31345;51.522;10.702;2023-02-21T14:11:38;57.20;;;32.15;;
45620;SDS011;31345;51.522;10.702;2023-02-21T14:14:19;62.58;;;36.50;;
45620;SDS011;31345;51.522;10.702;2023-02-21T14:16:52;36.55;;;22.00;;
45620;SDS011;31345;51.522;10.702;2023-02-21T14:19:26;54.65;;;32.10;;
45620;SDS011;31345;51.522;10.702;2023-02-21T14:22:23;12.57;;;7.85;;
45620;SDS011;31345;51.522;10.702;2023-02-21T14:25:04;47.97;;;27.35;;
45620;SDS011;31345;51.522;10.702;2023-02-21T14:27:44;24.73;;;15.27;;
45620;SDS011;31345;51.522;10.702;2023-02-21T14:35:53;24.85;;;15.38;;
45620;SDS011;31345;51.522;10.702;2023-02-21T14:38:27;14.27;;;9.73;;
45620;SDS011;31345;51.522;10.702;2023-02-21T14:41:29;9.63;;;6.88;;
45620;SDS011;31345;51.522;10.702;2023-02-21T14:44:18;9.35;;;6.20;;
45620;SDS011;31345;51.522;10.702;2023-02-21T14:49:55;9.70;;;5.80;;
45620;SDS011;31345;51.522;10.702;2023-02-21T14:52:51;10.15;;;6.65;;
45620;SDS011;31345;51.522;10.702;2023-02-21T14:55:52;8.75;;;5.50;;
45620;SDS011;31345;51.522;10.702;2023-02-21T14:58:41;8.10;;;5.63;;
45620;SDS011;31345;51.522;10.702;2023-02-21T15:01:24;8.70;;;5.43;;
45620;SDS011;31345;51.522;10.702;2023-02-21T15:04:11;9.07;;;5.88;;
45620;SDS011;31345;51.522;10.702;2023-02-21T15:06:53;7.15;;;5.13;;
45620;SDS011;31345;51.522;10.702;2023-02-21T15:09:27;8.85;;;5.20;;
45620;SDS011;31345;51.522;10.702;2023-02-21T15:11:58;7.07;;;4.78;;
45620;SDS011;31345;51.522;10.702;2023-02-21T15:14:28;7.10;;;5.07;;
45620;SDS011;31345;51.522;10.702;2023-02-21T15:17:10;8.25;;;5.00;;
45620;SDS011;31345;51.522;10.702;2023-02-21T15:19:46;8.30;;;4.88;;
45620;SDS011;31345;51.522;10.702;2023-02-21T15:22:24;8.60;;;5.22;;
45620;SDS011;31345;51.522;10.702;2023-02-21T15:25:12;8.02;;;4.97;;
45620;SDS011;31345;51.522;10.702;2023-02-21T15:27:52;8.52;;;5.15;;
45620;SDS011;31345;51.522;10.702;2023-02-21T15:30:23;8.30;;;5.32;;
45620;SDS011;31345;51.522;10.702;2023-02-21T15:33:10;8.32;;;5.25;;
45620;SDS011;31345;51.522;10.702;2023-02-21T15:35:49;8.13;;;5.68;;
45620;SDS011;31345;51.522;10.702;2023-02-21T15:38:37;7.82;;;5.60;;
45620;SDS011;31345;51.522;10.702;2023-02-21T15:41:22;7.75;;;5.28;;
45620;SDS011;31345;51.522;10.702;2023-02-21T15:43:55;7.60;;;5.38;;
45620;SDS011;31345;51.522;10.702;2023-02-21T15:46:38;8.65;;;5.38;;
45620;SDS011;31345;51.522;10.702;2023-02-21T15:49:17;8.30;;;5.30;;
45620;SDS011;31345;51.522;10.702;2023-02-21T15:51:57;7.25;;;5.15;;
45620;SDS011;31345;51.522;10.702;2023-02-21T15:54:29;11.38;;;6.60;;
45620;SDS011;31345;51.522;10.702;2023-02-21T15:57:20;9.13;;;5.32;;
45620;SDS011;31345;51.522;10.702;2023-02-21T15:59:56;10.05;;;6.63;;
45620;SDS011;31345;51.522;10.702;2023-02-21T16:05:54;10.40;;;6.03;;
45620;SDS011;31345;51.522;10.702;2023-02-21T16:08:37;8.60;;;5.97;;
45620;SDS011;31345;51.522;10.702;2023-02-21T16:11:16;9.30;;;6.03;;
45620;SDS011;31345;51.522;10.702;2023-02-21T16:13:45;10.55;;;6.32;;